Impacts METAR Board
IDs:

KBWI - Baltimore-Washington, MD, US

Updated at: 2200 UTC 02 Oct 2022
Potential Impact None Slight Moderate High
Time 02/10Z 02/11Z 02/12Z 02/13Z 02/14Z 02/15Z 02/16Z 02/17Z 02/18Z 02/19Z 02/20Z 02/21Z 02/22Z
Temp59 59 58 58 57 57 57 57 57 57 57 57 56
Dewpt58 58 56 56 54 53 52 53 54 54 55 54 53
Altim29.89 29.90 29.93 29.95 29.98 30.00 30.01 30.02 30.02 30.02 30.03 30.06 30.08
VIS2 1.25 1.25 1.5 4 6 7 2.5 2 2 1 1.5 6
CIG6 6 7 7 9 10 17 14 14 14 12 12 17
CoverOVCOVCOVCOVCOVCOVCOVCOVCOVCOVCOVCOVCOVC
FltCatIFRIFRIFRIFRIFRMVFRMVFRIFRIFRIFRIFRIFRMVFR
WX-RA BR-RA BR-RA BR-RA BR-DZ BR-RA BR---RA BR-RA BR-RA BR-RA BR-RA BR-RA BR
WDir40204030304030302030302020
WSpd8 9 8 11 10 13 9 10 9 12 10 7 10
WGst-- 17 -- 18 18 20 -- 20 23 19 17 -- 21
Raw hourly METARs
KBWI 020954Z 04008KT 2SM -RA BR OVC006 15/14 A2989 RMK AO2 DZE42RAB42 SLP121 P0001 T01500144 $
KBWI 021054Z 02009G17KT 1 1/4SM -RA BR BKN006 OVC012 15/14 A2990 RMK AO2 SLP126 P0002 T01500144 $
KBWI 021154Z 04008KT 1 1/4SM -RA BR BKN007 OVC013 14/13 A2993 RMK AO2 SLP135 P0002 60026 70039 T01440133 10161 20144 53014 $
KBWI 021254Z 03011G18KT 1 1/2SM -RA BR BKN007 OVC015 14/13 A2995 RMK AO2 SLP141 P0002 T01440133 $
KBWI 021404Z 03010G18KT 4SM -DZ BR BKN009 OVC015 14/12 A2998 RMK AO2 RAE04DZB04 P0000 T01390122 $
KBWI 021454Z 04013G20KT 6SM -RA BR BKN010 OVC016 14/12 A3000 RMK AO2 RAE04B50DZB04E50 SLP157 P0000 60003 T01390117 53022 $
KBWI 021554Z 03009KT 7SM SCT010 OVC017 14/11 A3001 RMK AO2 RAE36 SLP163 P0000 T01390111 $
KBWI 021654Z 03010G20KT 2 1/2SM -RA BR BKN014 OVC018 14/12 A3002 RMK AO2 DZB1559E49RAB49 SLP164 P0001 T01390117 $
KBWI 021754Z 02009G23KT 2SM -RA BR FEW009 BKN014 OVC020 14/12 A3002 RMK AO2 SLP164 P0002 60006 T01390122 10144 20139 50007 $
KBWI 021854Z 03012G19KT 2SM -RA BR FEW009 BKN014 OVC020 14/12 A3002 RMK AO2 RAE08B48DZB08E48 SLP164 P0001 T01390122 $
KBWI 021954Z 03010G17KT 1SM R10/P6000FT -RA BR SCT007 BKN012 OVC023 14/13 A3003 RMK AO2 SLP170 P0012 T01390128 $
KBWI 022054Z 02007KT 1 1/2SM -RA BR BKN012 BKN019 OVC026 14/12 A3006 RMK AO2 SLP177 P0006 60019 T01390122 53014 $
KBWI 022154Z 02010G21KT 6SM -RA BR FEW009 BKN017 OVC026 13/12 A3008 RMK AO2 SLP187 P0005 T01330117 $



Page loaded:  22:24 UTC  |   03:24 PM Pacific  |   04:24 PM Mountain  |   05:24 PM Central  |   06:24 PM Eastern

 

ADVISORIES

FORECASTS

FORECASTS

OBSERVATIONS

USER TOOLS

ABOUT US